createdAt,value
2018-03-03T00:01:11.315Z,74.50
2018-03-03T00:03:38.754Z,74.10
2018-03-03T00:06:06.221Z,72.90
2018-03-03T00:08:33.769Z,73.50
2018-03-03T00:11:01.207Z,73.10
2018-03-03T00:13:28.682Z,71.50
2018-03-03T00:15:56.369Z,71.90
2018-03-03T00:18:23.847Z,73.30
2018-03-03T00:20:51.299Z,73.90
2018-03-03T00:23:18.745Z,74.20
2018-03-03T00:25:46.188Z,73.80
2018-03-03T00:28:13.636Z,73.00
2018-03-03T00:30:41.191Z,72.90
2018-03-03T00:33:08.877Z,72.60
2018-03-03T00:35:36.331Z,73.50
2018-03-03T00:38:03.800Z,73.80
2018-03-03T00:40:31.238Z,74.30
2018-03-03T00:42:58.696Z,75.20
2018-03-03T00:45:26.139Z,75.00
2018-03-03T00:47:53.605Z,75.50
2018-03-03T00:50:21.068Z,74.70
2018-03-03T00:52:48.510Z,75.80
2018-03-03T00:55:15.977Z,76.10
2018-03-03T00:57:43.420Z,76.20
2018-03-03T01:00:10.856Z,75.00
2018-03-03T01:02:39.068Z,75.00
2018-03-03T01:05:06.525Z,74.90
2018-03-03T01:07:33.968Z,75.20
2018-03-03T01:10:01.412Z,75.30
2018-03-03T01:12:28.881Z,76.20
2018-03-03T01:14:56.305Z,75.40
2018-03-03T01:17:24.528Z,74.40
2018-03-03T01:19:51.973Z,74.30
2018-03-03T01:22:19.429Z,72.80
2018-03-03T01:24:46.867Z,72.20
2018-03-03T01:27:14.332Z,71.40
2018-03-03T01:29:41.802Z,71.20
2018-03-03T01:32:09.236Z,70.00
2018-03-03T01:34:36.700Z,70.70
2018-03-03T01:37:04.157Z,70.80
2018-03-03T01:39:31.623Z,70.10
2018-03-03T01:41:59.070Z,71.70
2018-03-03T01:44:26.536Z,69.80
2018-03-03T01:46:53.966Z,70.00
2018-03-03T01:49:21.415Z,69.40
2018-03-03T01:51:48.851Z,70.70
2018-03-03T01:54:16.313Z,70.10
2018-03-03T01:56:43.743Z,70.20
2018-03-03T01:59:11.216Z,70.40
2018-03-03T02:01:38.659Z,71.10
2018-03-03T02:04:06.111Z,71.70
2018-03-03T02:06:33.547Z,71.20
2018-03-03T02:09:00.990Z,70.60
2018-03-03T02:11:28.416Z,70.40
2018-03-03T02:13:55.850Z,71.00
2018-03-03T02:16:23.308Z,70.90
2018-03-03T02:18:50.828Z,70.50
2018-03-03T02:21:18.287Z,70.20
2018-03-03T02:23:45.739Z,70.10
2018-03-03T02:26:13.516Z,70.20
2018-03-03T02:28:40.958Z,70.50
2018-03-03T02:31:08.391Z,70.40
2018-03-03T02:33:35.832Z,70.30
2018-03-03T02:36:03.264Z,69.90
2018-03-03T02:38:30.718Z,70.00
2018-03-03T02:40:58.251Z,70.00
2018-03-03T02:43:25.704Z,70.70
2018-03-03T02:45:53.145Z,70.60
2018-03-03T02:48:21.365Z,70.30
2018-03-03T02:50:48.813Z,70.20
2018-03-03T02:53:16.262Z,70.40
2018-03-03T02:55:43.708Z,70.20
2018-03-03T02:58:11.155Z,69.90
2018-03-03T03:00:38.598Z,69.80
2018-03-03T03:03:06.047Z,70.30
2018-03-03T03:05:33.519Z,71.00
2018-03-03T03:08:00.964Z,70.80
2018-03-03T03:10:28.416Z,70.60
2018-03-03T03:12:55.842Z,70.70
2018-03-03T03:15:23.289Z,71.60
2018-03-03T03:17:50.744Z,71.40
2018-03-03T03:20:18.200Z,71.20
2018-03-03T03:22:45.656Z,71.50
2018-03-03T03:25:13.099Z,71.20
2018-03-03T03:27:40.543Z,71.50
2018-03-03T03:30:07.981Z,72.30
2018-03-03T03:32:35.431Z,74.10
2018-03-03T03:35:02.868Z,75.80
2018-03-03T03:37:30.328Z,76.60
2018-03-03T03:39:57.776Z,77.20
2018-03-03T03:42:25.211Z,76.70
2018-03-03T03:44:52.976Z,76.90
2018-03-03T03:47:20.404Z,76.60
2018-03-03T03:49:47.862Z,77.00
2018-03-03T03:52:16.063Z,76.90
2018-03-03T03:54:43.506Z,76.70
2018-03-03T03:57:10.947Z,77.00
2018-03-03T03:59:38.396Z,77.70
2018-03-03T04:02:06.100Z,78.50
2018-03-03T04:04:33.512Z,79.00
2018-03-03T04:07:00.975Z,79.40
2018-03-03T04:09:29.178Z,79.40
2018-03-03T04:11:57.510Z,79.30
2018-03-03T04:14:24.957Z,78.60
2018-03-03T04:16:52.420Z,77.80
2018-03-03T04:19:19.956Z,77.10
2018-03-03T04:21:47.400Z,75.40
2018-03-03T04:24:14.851Z,76.30
2018-03-03T04:26:42.309Z,77.60
2018-03-03T04:29:09.749Z,77.20
2018-03-03T04:31:37.192Z,76.70
2018-03-03T04:34:04.628Z,75.70
2018-03-03T04:36:32.079Z,76.60
2018-03-03T04:38:59.527Z,76.10
2018-03-03T04:41:26.975Z,77.60
2018-03-03T04:43:54.413Z,78.20
2018-03-03T04:46:21.880Z,78.20
2018-03-03T04:48:49.346Z,78.60
2018-03-03T04:51:16.787Z,79.20
2018-03-03T04:53:45.011Z,79.20
2018-03-03T04:56:12.450Z,79.40
2018-03-03T04:58:39.897Z,79.40
2018-03-03T05:01:07.351Z,78.60
2018-03-03T05:03:37.256Z,77.70
2018-03-03T05:06:19.574Z,78.50
2018-03-03T05:08:47.025Z,78.60
2018-03-03T05:11:15.896Z,78.60
2018-03-03T05:13:43.353Z,78.30
2018-03-03T05:16:23.009Z,77.60
2018-03-03T05:18:56.148Z,77.50
2018-03-03T05:21:39.267Z,77.80
2018-03-03T05:24:19.516Z,77.50
2018-03-03T05:26:53.411Z,77.00
2018-03-03T05:29:26.420Z,76.80
2018-03-03T05:31:59.426Z,76.50
2018-03-03T05:34:44.675Z,75.70
2018-03-03T05:37:32.814Z,75.10
2018-03-03T05:40:05.970Z,76.00
2018-03-03T05:42:37.193Z,74.80
2018-03-03T05:45:10.209Z,75.10
2018-03-03T05:47:43.319Z,75.60
2018-03-03T05:50:17.114Z,75.10
2018-03-03T05:52:50.293Z,75.00
2018-03-03T05:55:23.365Z,74.30
2018-03-03T06:01:07.963Z,74.70
2018-03-03T06:03:41.068Z,74.50
2018-03-03T06:06:14.563Z,73.60
2018-03-03T06:08:56.866Z,73.60
2018-03-03T06:11:24.320Z,74.00
2018-03-03T06:13:51.767Z,75.30
2018-03-03T06:16:19.211Z,75.80
2018-03-03T06:18:46.686Z,74.90
2018-03-03T06:21:14.122Z,75.30
2018-03-03T06:23:42.347Z,76.00
2018-03-03T06:26:10.567Z,76.40
2018-03-03T06:28:38.039Z,76.20
2018-03-03T06:31:05.488Z,76.80
2018-03-03T06:33:32.934Z,77.50
2018-03-03T06:36:00.398Z,77.70
2018-03-03T06:38:27.852Z,77.40
2018-03-03T06:40:55.330Z,77.00
2018-03-03T06:43:22.976Z,75.70
2018-03-03T06:45:50.464Z,75.90
2018-03-03T06:48:17.899Z,76.60
2018-03-03T06:50:45.649Z,76.40
2018-03-03T06:53:13.092Z,76.60
2018-03-03T06:55:40.543Z,76.00
2018-03-03T06:58:08.016Z,76.20
2018-03-03T07:00:35.436Z,75.80
2018-03-03T07:03:03.662Z,75.20
2018-03-03T07:05:31.118Z,75.10
2018-03-03T07:07:58.567Z,73.90
2018-03-03T07:10:26.003Z,73.00
2018-03-03T07:12:53.450Z,72.90
2018-03-03T07:15:20.900Z,73.30
2018-03-03T07:17:48.345Z,73.30
2018-03-03T07:20:15.776Z,72.60
2018-03-03T07:22:43.223Z,72.40
2018-03-03T07:25:10.717Z,72.70
2018-03-03T07:27:38.150Z,71.80
2018-03-03T07:30:05.630Z,72.20
2018-03-03T07:32:33.832Z,70.00
2018-03-03T07:35:01.281Z,69.90
2018-03-03T07:37:28.723Z,67.80
2018-03-03T07:39:56.164Z,67.90
2018-03-03T07:42:23.657Z,66.50
2018-03-03T07:44:51.049Z,66.10
2018-03-03T07:47:18.510Z,66.40
2018-03-03T07:49:45.962Z,64.80
2018-03-03T07:52:13.418Z,64.40
2018-03-03T07:54:40.855Z,64.80
2018-03-03T07:57:13.636Z,66.00
2018-03-03T07:59:41.062Z,69.80
2018-03-03T08:02:08.506Z,70.60
2018-03-03T08:04:35.965Z,72.20
2018-03-03T08:07:03.619Z,71.50
2018-03-03T08:09:31.101Z,69.20
2018-03-03T08:11:58.565Z,69.80
2018-03-03T08:14:26.012Z,69.40
2018-03-03T08:16:53.450Z,67.70
2018-03-03T08:19:20.906Z,67.30
2018-03-03T08:21:48.341Z,64.90
2018-03-03T08:24:15.799Z,66.30
2018-03-03T08:26:43.251Z,66.60
2018-03-03T08:29:10.688Z,66.10
2018-03-03T08:31:38.213Z,64.60
2018-03-03T08:34:05.639Z,62.70
2018-03-03T08:36:33.085Z,60.90
2018-03-03T08:39:00.575Z,59.90
2018-03-03T08:41:28.029Z,58.20
2018-03-03T08:43:55.530Z,58.60
2018-03-03T08:46:22.959Z,58.90
2018-03-03T08:48:50.406Z,57.60
2018-03-03T08:51:17.837Z,57.40
2018-03-03T08:53:45.284Z,58.30
2018-03-03T08:56:12.723Z,58.50
2018-03-03T08:58:40.461Z,58.80
2018-03-03T09:01:07.910Z,59.70
2018-03-03T09:03:35.356Z,58.20
2018-03-03T09:06:03.566Z,56.70
2018-03-03T09:08:31.022Z,56.60
2018-03-03T09:10:58.462Z,56.30
2018-03-03T09:13:25.950Z,55.60
2018-03-03T09:15:53.380Z,55.70
2018-03-03T09:18:20.852Z,55.30
2018-03-03T09:20:48.310Z,54.80
2018-03-03T09:23:15.746Z,54.20
2018-03-03T09:25:43.175Z,54.00
2018-03-03T09:28:10.631Z,53.70
2018-03-03T09:30:38.311Z,53.60
2018-03-03T09:33:05.768Z,54.90
2018-03-03T09:35:33.196Z,54.10
2018-03-03T09:38:00.788Z,53.40
2018-03-03T09:40:28.220Z,51.50
2018-03-03T09:42:55.668Z,50.40
2018-03-03T09:45:23.101Z,49.50
2018-03-03T09:47:50.543Z,48.70
2018-03-03T09:50:17.975Z,48.30
2018-03-03T09:52:45.454Z,47.90
2018-03-03T09:55:12.884Z,47.90
2018-03-03T09:57:40.330Z,47.50
2018-03-03T10:00:08.559Z,46.50
2018-03-03T10:02:36.031Z,46.40
2018-03-03T10:05:03.482Z,46.00
2018-03-03T10:07:30.923Z,45.50
2018-03-03T10:09:58.366Z,45.50
2018-03-03T10:12:25.799Z,45.30
2018-03-03T10:14:53.231Z,45.20
2018-03-03T10:17:20.685Z,45.20
2018-03-03T10:19:48.170Z,45.70
2018-03-03T10:22:15.627Z,45.80
2018-03-03T10:24:43.063Z,46.00
2018-03-03T10:27:11.287Z,44.20
2018-03-03T10:29:38.719Z,45.00
2018-03-03T10:32:06.209Z,43.70
2018-03-03T10:34:33.658Z,43.40
2018-03-03T10:37:01.111Z,43.60
2018-03-03T10:39:28.542Z,44.60
2018-03-03T10:41:56.007Z,44.80
2018-03-03T10:44:23.430Z,45.00
2018-03-03T10:46:50.880Z,45.30
2018-03-03T10:49:18.328Z,45.10
2018-03-03T10:51:45.771Z,45.10
2018-03-03T10:54:13.243Z,45.10
2018-03-03T10:56:40.692Z,44.20
2018-03-03T10:59:08.148Z,44.00
2018-03-03T11:01:35.592Z,43.70
2018-03-03T11:04:03.054Z,43.40
2018-03-03T11:06:30.475Z,43.40
2018-03-03T11:08:57.944Z,42.80
2018-03-03T11:11:25.413Z,42.40
2018-03-03T11:13:52.880Z,42.10
2018-03-03T11:16:20.535Z,42.20
2018-03-03T11:18:47.952Z,42.20
2018-03-03T11:21:16.201Z,41.70
2018-03-03T11:23:43.664Z,41.50
2018-03-03T11:26:11.123Z,41.30
2018-03-03T11:28:38.606Z,40.60
2018-03-03T11:31:06.039Z,39.30
2018-03-03T11:33:33.485Z,37.20
2018-03-03T11:36:00.924Z,36.10
2018-03-03T11:38:28.411Z,35.00
2018-03-03T11:40:55.831Z,34.30
2018-03-03T11:43:24.046Z,33.10
2018-03-03T11:45:51.524Z,33.00
2018-03-03T11:48:19.710Z,31.30
2018-03-03T11:50:47.151Z,31.20
2018-03-03T11:53:14.584Z,29.90
2018-03-03T11:55:42.062Z,29.30
2018-03-03T11:58:09.471Z,29.20
2018-03-03T12:00:36.911Z,29.10
2018-03-03T12:03:04.372Z,28.50
2018-03-03T12:05:31.810Z,28.50
2018-03-03T12:07:59.274Z,28.10
2018-03-03T12:10:26.814Z,27.60
2018-03-03T12:12:54.243Z,27.00
2018-03-03T12:15:21.836Z,26.90
2018-03-03T12:17:49.414Z,26.70
2018-03-03T12:20:16.849Z,26.70
2018-03-03T12:22:44.295Z,26.40
2018-03-03T12:25:12.511Z,26.40
2018-03-03T12:27:39.943Z,26.40
2018-03-03T12:30:07.390Z,26.10
2018-03-03T12:32:34.875Z,26.10
2018-03-03T12:35:02.283Z,26.30
2018-03-03T12:37:29.720Z,26.10
2018-03-03T12:39:57.450Z,26.20
2018-03-03T12:42:24.892Z,26.30
2018-03-03T12:44:52.316Z,26.10
2018-03-03T12:47:20.515Z,26.20
2018-03-03T12:49:47.972Z,26.10
2018-03-03T12:52:15.403Z,26.90
2018-03-03T12:54:42.880Z,27.30
2018-03-03T12:57:10.332Z,27.20
2018-03-03T12:59:37.743Z,27.10
2018-03-03T13:02:05.195Z,27.40
2018-03-03T17:16:16.932Z,99.90
2018-03-03T17:18:44.371Z,99.90
2018-03-03T17:21:11.829Z,99.90
2018-03-03T17:23:39.284Z,99.90
2018-03-03T17:26:06.729Z,99.90
2018-03-03T17:28:34.157Z,94.10
2018-03-03T17:31:01.613Z,97.30
2018-03-03T17:33:29.066Z,98.70
2018-03-03T17:35:56.577Z,97.80
2018-03-03T17:38:24.017Z,98.60
2018-03-03T17:40:52.215Z,97.00
2018-03-03T17:43:19.981Z,96.90
2018-03-03T17:45:47.443Z,90.50
2018-03-03T17:48:14.879Z,96.20
2018-03-03T17:50:42.339Z,97.00
2018-03-03T17:53:09.763Z,95.60
2018-03-03T17:55:37.217Z,94.80
2018-03-03T17:58:04.668Z,94.60
2018-03-03T18:00:32.108Z,95.20
2018-03-03T18:02:59.567Z,93.90
2018-03-03T18:05:27.006Z,94.30
2018-03-03T18:07:54.465Z,93.20
2018-03-03T18:10:21.923Z,94.90
2018-03-03T18:12:49.367Z,92.70
2018-03-03T18:15:16.834Z,92.40
2018-03-03T18:17:44.293Z,92.60
2018-03-03T18:20:11.720Z,93.10
2018-03-03T18:22:39.940Z,92.90
2018-03-03T18:25:07.400Z,92.90
2018-03-03T18:27:34.838Z,93.20
2018-03-03T18:30:02.272Z,91.90
2018-03-03T18:32:29.724Z,92.10
2018-03-03T18:34:57.163Z,91.90
2018-03-03T18:37:25.389Z,88.50
2018-03-03T18:39:52.816Z,88.60
2018-03-03T18:42:20.369Z,91.00
2018-03-03T18:44:47.836Z,90.00
2018-03-03T18:47:15.290Z,86.90
2018-03-03T18:49:43.499Z,88.50
2018-03-03T18:52:10.964Z,88.50
2018-03-03T18:54:38.418Z,88.30
2018-03-03T18:57:05.863Z,87.20
2018-03-03T18:59:33.294Z,84.20
2018-03-03T19:02:00.749Z,85.00
2018-03-03T19:04:28.398Z,83.80
2018-03-03T19:06:55.847Z,84.10
2018-03-03T19:09:23.292Z,81.50
2018-03-03T19:11:50.736Z,82.30
2018-03-03T19:14:18.175Z,77.20
2018-03-03T19:16:45.632Z,82.30
2018-03-03T19:19:13.084Z,76.40
2018-03-03T19:21:40.559Z,80.60
2018-03-03T19:24:07.990Z,73.20
2018-03-03T19:26:35.511Z,75.00
2018-03-03T19:29:03.732Z,74.10
2018-03-03T19:31:31.178Z,74.00
2018-03-03T19:33:58.651Z,76.80
2018-03-03T19:36:26.098Z,75.50
2018-03-03T19:38:53.528Z,74.00
2018-03-03T19:41:20.995Z,73.40
2018-03-03T19:43:48.424Z,75.10
2018-03-03T19:46:16.641Z,74.70
2018-03-03T19:48:44.166Z,74.70
2018-03-03T19:51:11.587Z,73.80
2018-03-03T19:53:39.056Z,73.30
2018-03-03T19:56:06.488Z,74.10
2018-03-03T19:58:33.940Z,74.40
2018-03-03T20:01:01.376Z,74.20
2018-03-03T20:03:28.804Z,74.60
2018-03-03T20:05:56.252Z,75.70
2018-03-03T20:08:24.453Z,75.90
2018-03-03T20:10:51.909Z,75.80
2018-03-03T20:13:19.378Z,75.40
2018-03-03T20:15:46.822Z,75.30
2018-03-03T20:18:14.244Z,74.80
2018-03-03T20:20:41.687Z,74.30
2018-03-03T20:23:09.148Z,74.50
2018-03-03T20:25:36.576Z,74.40
2018-03-03T20:28:04.032Z,75.00
2018-03-03T20:30:31.464Z,75.50
2018-03-03T20:32:59.008Z,74.70
2018-03-03T20:35:26.436Z,73.80
2018-03-03T20:37:53.891Z,73.50
2018-03-03T20:40:21.334Z,72.00
2018-03-03T20:42:48.788Z,73.10
2018-03-03T20:45:16.204Z,73.40
2018-03-03T20:47:43.641Z,72.70
2018-03-03T20:50:11.867Z,72.90
2018-03-03T20:52:39.296Z,72.80
2018-03-03T20:55:06.729Z,73.60
2018-03-03T20:57:34.940Z,72.90
2018-03-03T21:00:02.397Z,72.90
2018-03-03T21:02:29.832Z,72.70
2018-03-03T21:04:57.299Z,71.60
2018-03-03T21:07:24.747Z,73.00
2018-03-03T21:09:52.219Z,71.60
2018-03-03T21:12:25.233Z,71.70
2018-03-03T21:14:52.670Z,70.90
2018-03-03T21:17:20.307Z,71.10
2018-03-03T21:19:47.727Z,72.50
2018-03-03T21:22:15.183Z,72.20
2018-03-03T21:24:42.621Z,72.80
2018-03-03T21:27:10.078Z,72.90
2018-03-03T21:29:37.523Z,73.70
2018-03-03T21:32:04.971Z,74.70
2018-03-03T21:34:32.428Z,75.40
2018-03-03T21:36:59.873Z,75.70
2018-03-03T21:39:27.372Z,75.80
2018-03-03T21:41:54.830Z,75.40
2018-03-03T21:44:22.600Z,75.20
2018-03-03T21:46:50.019Z,75.80
2018-03-03T21:49:17.452Z,76.70
2018-03-03T21:51:44.891Z,75.10
2018-03-03T21:54:13.099Z,76.80
2018-03-03T21:56:40.534Z,76.70
2018-03-03T21:59:07.974Z,77.90
2018-03-03T22:01:36.355Z,78.90
2018-03-03T22:04:03.804Z,78.70
2018-03-03T22:06:31.244Z,79.00
2018-03-03T22:08:58.701Z,79.70
2018-03-03T22:11:26.163Z,80.40
2018-03-03T22:13:53.593Z,80.60
2018-03-03T22:16:21.047Z,80.60
2018-03-03T22:18:48.498Z,81.20
2018-03-03T22:21:15.919Z,82.00
2018-03-03T22:23:44.135Z,82.60
2018-03-03T22:26:11.588Z,82.50
2018-03-03T22:28:39.046Z,82.80
2018-03-03T22:31:06.475Z,81.50
2018-03-03T22:33:33.916Z,81.00
2018-03-03T22:36:02.131Z,81.70
2018-03-03T22:38:29.589Z,81.60
2018-03-03T22:40:57.027Z,82.00
2018-03-03T22:43:24.487Z,82.90
2018-03-03T22:45:52.133Z,83.50
2018-03-03T22:48:19.570Z,82.70
2018-03-03T22:50:47.016Z,81.20
2018-03-03T22:53:14.452Z,81.80
2018-03-03T22:55:41.936Z,81.40
2018-03-03T22:58:09.390Z,82.10
2018-03-03T23:00:36.833Z,83.20
2018-03-03T23:03:04.272Z,84.20
2018-03-03T23:05:31.740Z,83.10
2018-03-03T23:07:59.176Z,84.00
2018-03-03T23:10:26.620Z,84.50
2018-03-03T23:12:54.040Z,85.20
2018-03-03T23:15:22.255Z,86.00
2018-03-03T23:17:49.679Z,85.80
2018-03-03T23:20:18.815Z,85.80
2018-03-03T23:22:46.255Z,85.80
2018-03-03T23:25:14.038Z,86.40
2018-03-03T23:27:41.465Z,86.70
2018-03-03T23:30:08.889Z,86.50
2018-03-03T23:32:36.348Z,85.90
2018-03-03T23:35:03.799Z,86.00
2018-03-03T23:37:31.226Z,85.20
2018-03-03T23:39:58.679Z,85.00
2018-03-03T23:42:26.144Z,86.20
2018-03-03T23:44:53.591Z,85.30
2018-03-03T23:47:21.049Z,85.80
2018-03-03T23:49:48.507Z,86.90
2018-03-03T23:52:15.944Z,85.80
2018-03-03T23:54:43.388Z,85.60
2018-03-03T23:57:10.860Z,85.20
2018-03-03T23:59:38.289Z,86.10
